sensor_id;sensor_type;location;lat;lon;timestamp;P1;durP1;ratioP1;P2;durP2;ratioP2
12910;SDS011;6523;49.758;6.120;2023-07-29T00:02:17;2.33;;;1.70;;
12910;SDS011;6523;49.758;6.120;2023-07-29T00:04:42;2.03;;;1.80;;
12910;SDS011;6523;49.758;6.120;2023-07-29T00:07:08;2.37;;;1.83;;
12910;SDS011;6523;49.758;6.120;2023-07-29T00:09:34;2.37;;;2.10;;
12910;SDS011;6523;49.758;6.120;2023-07-29T00:11:59;2.00;;;1.50;;
12910;SDS011;6523;49.758;6.120;2023-07-29T00:14:26;3.00;;;1.63;;
12910;SDS011;6523;49.758;6.120;2023-07-29T00:16:51;2.77;;;1.70;;
12910;SDS011;6523;49.758;6.120;2023-07-29T00:19:17;1.63;;;1.53;;
12910;SDS011;6523;49.758;6.120;2023-07-29T00:21:42;3.20;;;1.97;;
12910;SDS011;6523;49.758;6.120;2023-07-29T00:24:08;4.17;;;1.77;;
12910;SDS011;6523;49.758;6.120;2023-07-29T00:26:33;1.90;;;1.70;;
12910;SDS011;6523;49.758;6.120;2023-07-29T00:28:59;1.93;;;1.57;;
12910;SDS011;6523;49.758;6.120;2023-07-29T00:31:24;3.67;;;2.00;;
12910;SDS011;6523;49.758;6.120;2023-07-29T00:33:50;1.80;;;1.70;;
12910;SDS011;6523;49.758;6.120;2023-07-29T00:36:17;2.63;;;1.63;;
12910;SDS011;6523;49.758;6.120;2023-07-29T00:38:43;2.13;;;1.97;;
12910;SDS011;6523;49.758;6.120;2023-07-29T00:41:08;2.47;;;1.67;;
12910;SDS011;6523;49.758;6.120;2023-07-29T00:43:38;2.37;;;1.90;;
12910;SDS011;6523;49.758;6.120;2023-07-29T00:46:04;2.27;;;1.87;;
12910;SDS011;6523;49.758;6.120;2023-07-29T00:48:30;1.70;;;1.60;;
12910;SDS011;6523;49.758;6.120;2023-07-29T00:50:56;2.63;;;1.80;;
12910;SDS011;6523;49.758;6.120;2023-07-29T00:53:22;2.40;;;1.60;;
12910;SDS011;6523;49.758;6.120;2023-07-29T00:55:47;3.30;;;2.10;;
12910;SDS011;6523;49.758;6.120;2023-07-29T00:58:13;2.67;;;1.90;;
12910;SDS011;6523;49.758;6.120;2023-07-29T01:00:39;1.80;;;1.63;;
12910;SDS011;6523;49.758;6.120;2023-07-29T01:03:05;3.00;;;2.03;;
12910;SDS011;6523;49.758;6.120;2023-07-29T01:05:32;3.10;;;1.83;;
12910;SDS011;6523;49.758;6.120;2023-07-29T01:08:14;1.90;;;1.80;;
12910;SDS011;6523;49.758;6.120;2023-07-29T01:16:08;2.67;;;1.83;;
12910;SDS011;6523;49.758;6.120;2023-07-29T01:18:39;3.80;;;1.80;;
12910;SDS011;6523;49.758;6.120;2023-07-29T01:21:07;1.73;;;1.63;;
12910;SDS011;6523;49.758;6.120;2023-07-29T01:23:34;2.00;;;1.90;;
12910;SDS011;6523;49.758;6.120;2023-07-29T01:26:00;2.20;;;2.00;;
12910;SDS011;6523;49.758;6.120;2023-07-29T01:28:27;1.93;;;1.80;;
12910;SDS011;6523;49.758;6.120;2023-07-29T01:31:03;2.13;;;1.67;;
12910;SDS011;6523;49.758;6.120;2023-07-29T01:33:35;1.90;;;1.80;;
12910;SDS011;6523;49.758;6.120;2023-07-29T01:36:08;3.37;;;2.00;;
12910;SDS011;6523;49.758;6.120;2023-07-29T01:38:47;2.47;;;2.10;;
12910;SDS011;6523;49.758;6.120;2023-07-29T01:41:14;2.20;;;1.80;;
12910;SDS011;6523;49.758;6.120;2023-07-29T01:43:41;2.20;;;2.00;;
12910;SDS011;6523;49.758;6.120;2023-07-29T01:46:11;2.70;;;1.60;;
12910;SDS011;6523;49.758;6.120;2023-07-29T01:48:40;2.00;;;1.80;;
12910;SDS011;6523;49.758;6.120;2023-07-29T01:51:06;2.13;;;1.90;;
12910;SDS011;6523;49.758;6.120;2023-07-29T01:53:32;2.17;;;1.90;;
12910;SDS011;6523;49.758;6.120;2023-07-29T01:55:57;3.93;;;1.80;;
12910;SDS011;6523;49.758;6.120;2023-07-29T01:58:23;2.70;;;1.70;;
12910;SDS011;6523;49.758;6.120;2023-07-29T02:00:50;2.30;;;1.90;;
12910;SDS011;6523;49.758;6.120;2023-07-29T02:03:16;2.03;;;1.60;;
12910;SDS011;6523;49.758;6.120;2023-07-29T02:05:42;2.73;;;1.80;;
12910;SDS011;6523;49.758;6.120;2023-07-29T02:08:08;2.87;;;2.00;;
12910;SDS011;6523;49.758;6.120;2023-07-29T02:10:35;3.03;;;1.93;;
12910;SDS011;6523;49.758;6.120;2023-07-29T02:13:00;1.97;;;1.70;;
12910;SDS011;6523;49.758;6.120;2023-07-29T02:15:26;2.07;;;1.87;;
12910;SDS011;6523;49.758;6.120;2023-07-29T02:17:52;2.20;;;2.07;;
12910;SDS011;6523;49.758;6.120;2023-07-29T02:20:18;2.20;;;2.00;;
12910;SDS011;6523;49.758;6.120;2023-07-29T02:22:44;6.23;;;2.00;;
12910;SDS011;6523;49.758;6.120;2023-07-29T02:25:09;1.73;;;1.63;;
12910;SDS011;6523;49.758;6.120;2023-07-29T02:27:35;2.03;;;1.83;;
12910;SDS011;6523;49.758;6.120;2023-07-29T02:30:00;3.27;;;2.00;;
12910;SDS011;6523;49.758;6.120;2023-07-29T02:32:27;2.63;;;2.20;;
12910;SDS011;6523;49.758;6.120;2023-07-29T02:34:53;2.20;;;2.00;;
12910;SDS011;6523;49.758;6.120;2023-07-29T02:37:18;1.87;;;1.57;;
12910;SDS011;6523;49.758;6.120;2023-07-29T02:39:45;1.77;;;1.67;;
12910;SDS011;6523;49.758;6.120;2023-07-29T02:42:10;2.17;;;1.80;;
12910;SDS011;6523;49.758;6.120;2023-07-29T02:44:36;3.23;;;1.93;;
12910;SDS011;6523;49.758;6.120;2023-07-29T02:47:01;2.00;;;1.83;;
12910;SDS011;6523;49.758;6.120;2023-07-29T02:49:27;2.07;;;1.80;;
12910;SDS011;6523;49.758;6.120;2023-07-29T02:51:52;1.70;;;1.60;;
12910;SDS011;6523;49.758;6.120;2023-07-29T02:54:18;2.10;;;1.73;;
12910;SDS011;6523;49.758;6.120;2023-07-29T02:56:43;2.40;;;2.00;;
12910;SDS011;6523;49.758;6.120;2023-07-29T02:59:09;3.83;;;2.13;;
12910;SDS011;6523;49.758;6.120;2023-07-29T03:01:34;2.10;;;1.90;;
12910;SDS011;6523;49.758;6.120;2023-07-29T03:04:00;2.30;;;2.10;;
12910;SDS011;6523;49.758;6.120;2023-07-29T03:06:26;2.90;;;1.97;;
12910;SDS011;6523;49.758;6.120;2023-07-29T03:08:51;2.87;;;2.03;;
12910;SDS011;6523;49.758;6.120;2023-07-29T03:11:17;2.20;;;2.00;;
12910;SDS011;6523;49.758;6.120;2023-07-29T03:13:43;2.50;;;2.00;;
12910;SDS011;6523;49.758;6.120;2023-07-29T03:16:09;3.30;;;2.17;;
12910;SDS011;6523;49.758;6.120;2023-07-29T03:18:40;2.30;;;2.10;;
12910;SDS011;6523;49.758;6.120;2023-07-29T03:21:06;2.53;;;2.33;;
12910;SDS011;6523;49.758;6.120;2023-07-29T03:23:32;2.67;;;2.07;;
12910;SDS011;6523;49.758;6.120;2023-07-29T03:25:59;2.27;;;2.07;;
12910;SDS011;6523;49.758;6.120;2023-07-29T03:28:26;4.50;;;2.33;;
12910;SDS011;6523;49.758;6.120;2023-07-29T03:30:53;5.87;;;2.43;;
12910;SDS011;6523;49.758;6.120;2023-07-29T03:33:19;5.00;;;2.43;;
12910;SDS011;6523;49.758;6.120;2023-07-29T03:35:44;3.10;;;2.50;;
12910;SDS011;6523;49.758;6.120;2023-07-29T03:38:10;3.00;;;2.70;;
12910;SDS011;6523;49.758;6.120;2023-07-29T03:40:37;2.90;;;2.53;;
12910;SDS011;6523;49.758;6.120;2023-07-29T03:43:03;2.63;;;2.43;;
12910;SDS011;6523;49.758;6.120;2023-07-29T03:45:29;3.00;;;2.33;;
12910;SDS011;6523;49.758;6.120;2023-07-29T03:47:54;3.30;;;2.20;;
12910;SDS011;6523;49.758;6.120;2023-07-29T03:50:20;2.37;;;2.17;;
12910;SDS011;6523;49.758;6.120;2023-07-29T03:52:46;3.60;;;2.20;;
12910;SDS011;6523;49.758;6.120;2023-07-29T03:55:11;2.70;;;2.50;;
12910;SDS011;6523;49.758;6.120;2023-07-29T03:57:37;3.13;;;2.43;;
12910;SDS011;6523;49.758;6.120;2023-07-29T04:00:02;2.40;;;2.20;;
12910;SDS011;6523;49.758;6.120;2023-07-29T04:02:28;3.13;;;2.47;;
12910;SDS011;6523;49.758;6.120;2023-07-29T04:04:54;3.13;;;2.50;;
12910;SDS011;6523;49.758;6.120;2023-07-29T04:07:19;2.40;;;2.20;;
12910;SDS011;6523;49.758;6.120;2023-07-29T04:09:45;2.10;;;1.90;;
12910;SDS011;6523;49.758;6.120;2023-07-29T04:12:11;2.10;;;1.77;;
12910;SDS011;6523;49.758;6.120;2023-07-29T04:14:37;2.60;;;2.40;;
12910;SDS011;6523;49.758;6.120;2023-07-29T04:17:02;2.00;;;1.90;;
12910;SDS011;6523;49.758;6.120;2023-07-29T04:19:28;2.17;;;1.90;;
12910;SDS011;6523;49.758;6.120;2023-07-29T04:21:53;3.10;;;1.67;;
12910;SDS011;6523;49.758;6.120;2023-07-29T04:24:19;1.70;;;1.60;;
12910;SDS011;6523;49.758;6.120;2023-07-29T04:26:45;2.50;;;1.90;;
12910;SDS011;6523;49.758;6.120;2023-07-29T04:29:11;1.97;;;1.80;;
12910;SDS011;6523;49.758;6.120;2023-07-29T04:31:36;1.90;;;1.70;;
12910;SDS011;6523;49.758;6.120;2023-07-29T04:34:02;2.13;;;1.63;;
12910;SDS011;6523;49.758;6.120;2023-07-29T04:36:29;2.40;;;2.20;;
12910;SDS011;6523;49.758;6.120;2023-07-29T04:38:54;2.30;;;2.10;;
12910;SDS011;6523;49.758;6.120;2023-07-29T04:41:20;4.50;;;2.13;;
12910;SDS011;6523;49.758;6.120;2023-07-29T04:43:46;3.40;;;2.20;;
12910;SDS011;6523;49.758;6.120;2023-07-29T04:46:11;2.20;;;2.10;;
12910;SDS011;6523;49.758;6.120;2023-07-29T04:48:37;5.17;;;1.77;;
12910;SDS011;6523;49.758;6.120;2023-07-29T04:51:02;3.03;;;2.20;;
12910;SDS011;6523;49.758;6.120;2023-07-29T04:53:28;2.23;;;2.03;;
12910;SDS011;6523;49.758;6.120;2023-07-29T04:55:54;3.13;;;2.30;;
12910;SDS011;6523;49.758;6.120;2023-07-29T04:58:19;1.90;;;1.67;;
12910;SDS011;6523;49.758;6.120;2023-07-29T05:00:46;1.67;;;1.57;;
12910;SDS011;6523;49.758;6.120;2023-07-29T05:03:12;2.40;;;2.20;;
12910;SDS011;6523;49.758;6.120;2023-07-29T05:05:37;2.77;;;2.17;;
12910;SDS011;6523;49.758;6.120;2023-07-29T05:08:03;1.90;;;1.70;;
12910;SDS011;6523;49.758;6.120;2023-07-29T05:10:29;2.30;;;1.73;;
12910;SDS011;6523;49.758;6.120;2023-07-29T05:12:54;1.63;;;1.50;;
12910;SDS011;6523;49.758;6.120;2023-07-29T05:15:20;3.10;;;1.60;;
12910;SDS011;6523;49.758;6.120;2023-07-29T05:17:45;2.80;;;1.57;;
12910;SDS011;6523;49.758;6.120;2023-07-29T05:20:11;2.73;;;1.50;;
12910;SDS011;6523;49.758;6.120;2023-07-29T05:22:36;1.87;;;1.50;;
12910;SDS011;6523;49.758;6.120;2023-07-29T05:25:02;2.20;;;1.63;;
12910;SDS011;6523;49.758;6.120;2023-07-29T05:27:28;2.63;;;1.70;;
12910;SDS011;6523;49.758;6.120;2023-07-29T05:29:53;2.00;;;1.83;;
12910;SDS011;6523;49.758;6.120;2023-07-29T05:32:19;2.00;;;1.80;;
12910;SDS011;6523;49.758;6.120;2023-07-29T05:34:44;2.63;;;1.90;;
12910;SDS011;6523;49.758;6.120;2023-07-29T05:37:10;4.40;;;1.93;;
12910;SDS011;6523;49.758;6.120;2023-07-29T05:39:35;1.90;;;1.73;;
12910;SDS011;6523;49.758;6.120;2023-07-29T05:42:02;1.70;;;1.60;;
12910;SDS011;6523;49.758;6.120;2023-07-29T05:44:27;2.23;;;1.73;;
12910;SDS011;6523;49.758;6.120;2023-07-29T05:46:54;2.07;;;1.73;;
12910;SDS011;6523;49.758;6.120;2023-07-29T05:49:20;1.77;;;1.67;;
12910;SDS011;6523;49.758;6.120;2023-07-29T05:51:45;1.90;;;1.77;;
12910;SDS011;6523;49.758;6.120;2023-07-29T05:54:11;2.73;;;2.07;;
12910;SDS011;6523;49.758;6.120;2023-07-29T05:56:36;2.20;;;1.97;;
12910;SDS011;6523;49.758;6.120;2023-07-29T05:59:02;6.00;;;1.87;;
12910;SDS011;6523;49.758;6.120;2023-07-29T06:01:27;2.37;;;1.80;;
12910;SDS011;6523;49.758;6.120;2023-07-29T06:03:53;2.27;;;2.00;;
12910;SDS011;6523;49.758;6.120;2023-07-29T06:06:18;1.80;;;1.70;;
12910;SDS011;6523;49.758;6.120;2023-07-29T06:08:44;2.13;;;1.90;;
12910;SDS011;6523;49.758;6.120;2023-07-29T06:11:09;2.40;;;1.83;;
12910;SDS011;6523;49.758;6.120;2023-07-29T06:13:35;2.13;;;1.93;;
12910;SDS011;6523;49.758;6.120;2023-07-29T06:16:00;1.90;;;1.73;;
12910;SDS011;6523;49.758;6.120;2023-07-29T06:18:26;1.80;;;1.70;;
12910;SDS011;6523;49.758;6.120;2023-07-29T06:20:51;3.83;;;1.80;;
12910;SDS011;6523;49.758;6.120;2023-07-29T06:23:17;2.67;;;1.80;;
12910;SDS011;6523;49.758;6.120;2023-07-29T06:25:43;2.87;;;2.13;;
12910;SDS011;6523;49.758;6.120;2023-07-29T06:28:08;3.60;;;2.20;;
12910;SDS011;6523;49.758;6.120;2023-07-29T06:30:34;3.20;;;2.20;;
12910;SDS011;6523;49.758;6.120;2023-07-29T06:33:00;2.10;;;1.90;;
12910;SDS011;6523;49.758;6.120;2023-07-29T06:35:26;2.60;;;2.40;;
12910;SDS011;6523;49.758;6.120;2023-07-29T06:37:51;2.33;;;2.13;;
12910;SDS011;6523;49.758;6.120;2023-07-29T06:40:17;3.10;;;2.20;;
12910;SDS011;6523;49.758;6.120;2023-07-29T06:42:42;3.30;;;2.50;;
12910;SDS011;6523;49.758;6.120;2023-07-29T06:45:08;3.00;;;2.40;;
12910;SDS011;6523;49.758;6.120;2023-07-29T06:47:34;3.03;;;2.50;;
12910;SDS011;6523;49.758;6.120;2023-07-29T06:49:59;3.57;;;2.97;;
12910;SDS011;6523;49.758;6.120;2023-07-29T06:52:25;3.57;;;2.40;;
12910;SDS011;6523;49.758;6.120;2023-07-29T06:54:51;4.50;;;2.63;;
12910;SDS011;6523;49.758;6.120;2023-07-29T06:57:16;3.17;;;2.60;;
12910;SDS011;6523;49.758;6.120;2023-07-29T06:59:42;2.50;;;2.30;;
12910;SDS011;6523;49.758;6.120;2023-07-29T07:02:07;2.80;;;2.23;;
12910;SDS011;6523;49.758;6.120;2023-07-29T07:04:33;3.20;;;2.30;;
12910;SDS011;6523;49.758;6.120;2023-07-29T07:06:58;2.73;;;2.43;;
12910;SDS011;6523;49.758;6.120;2023-07-29T07:09:24;2.97;;;2.37;;
12910;SDS011;6523;49.758;6.120;2023-07-29T07:11:49;3.67;;;2.33;;
12910;SDS011;6523;49.758;6.120;2023-07-29T07:14:15;3.47;;;2.33;;
12910;SDS011;6523;49.758;6.120;2023-07-29T07:16:40;2.00;;;1.90;;
12910;SDS011;6523;49.758;6.120;2023-07-29T07:19:06;2.03;;;1.93;;
12910;SDS011;6523;49.758;6.120;2023-07-29T07:21:31;2.70;;;2.30;;
12910;SDS011;6523;49.758;6.120;2023-07-29T07:23:57;3.40;;;2.20;;
12910;SDS011;6523;49.758;6.120;2023-07-29T07:26:23;3.00;;;2.10;;
12910;SDS011;6523;49.758;6.120;2023-07-29T07:28:48;3.20;;;2.20;;
12910;SDS011;6523;49.758;6.120;2023-07-29T07:31:14;3.97;;;2.30;;
12910;SDS011;6523;49.758;6.120;2023-07-29T07:33:41;2.33;;;2.00;;
12910;SDS011;6523;49.758;6.120;2023-07-29T07:36:06;2.80;;;2.13;;
12910;SDS011;6523;49.758;6.120;2023-07-29T07:38:32;2.37;;;2.17;;
12910;SDS011;6523;49.758;6.120;2023-07-29T07:40:58;2.33;;;2.13;;
12910;SDS011;6523;49.758;6.120;2023-07-29T07:43:23;2.10;;;1.90;;
12910;SDS011;6523;49.758;6.120;2023-07-29T07:45:49;1.60;;;1.50;;
12910;SDS011;6523;49.758;6.120;2023-07-29T07:48:16;3.00;;;2.27;;
12910;SDS011;6523;49.758;6.120;2023-07-29T07:50:42;1.83;;;1.63;;
12910;SDS011;6523;49.758;6.120;2023-07-29T07:53:08;2.57;;;2.00;;
12910;SDS011;6523;49.758;6.120;2023-07-29T07:55:33;2.13;;;1.80;;
12910;SDS011;6523;49.758;6.120;2023-07-29T07:57:59;2.97;;;2.13;;
12910;SDS011;6523;49.758;6.120;2023-07-29T08:00:24;1.73;;;1.63;;
12910;SDS011;6523;49.758;6.120;2023-07-29T08:02:50;1.70;;;1.60;;
12910;SDS011;6523;49.758;6.120;2023-07-29T08:05:16;2.60;;;1.83;;
12910;SDS011;6523;49.758;6.120;2023-07-29T08:07:41;2.07;;;1.80;;
12910;SDS011;6523;49.758;6.120;2023-07-29T08:10:07;2.43;;;1.80;;
12910;SDS011;6523;49.758;6.120;2023-07-29T08:12:33;3.00;;;1.70;;
12910;SDS011;6523;49.758;6.120;2023-07-29T08:14:58;2.87;;;2.00;;
12910;SDS011;6523;49.758;6.120;2023-07-29T08:17:24;2.13;;;1.93;;
12910;SDS011;6523;49.758;6.120;2023-07-29T08:19:49;3.03;;;2.00;;
12910;SDS011;6523;49.758;6.120;2023-07-29T08:22:15;1.47;;;1.37;;
12910;SDS011;6523;49.758;6.120;2023-07-29T08:24:42;2.33;;;2.13;;
12910;SDS011;6523;49.758;6.120;2023-07-29T08:27:07;2.90;;;1.73;;
12910;SDS011;6523;49.758;6.120;2023-07-29T08:29:33;2.70;;;1.70;;
12910;SDS011;6523;49.758;6.120;2023-07-29T08:31:58;2.07;;;1.90;;
12910;SDS011;6523;49.758;6.120;2023-07-29T08:34:24;2.17;;;1.80;;
12910;SDS011;6523;49.758;6.120;2023-07-29T08:36:50;2.03;;;1.83;;
12910;SDS011;6523;49.758;6.120;2023-07-29T08:39:15;2.00;;;1.80;;
12910;SDS011;6523;49.758;6.120;2023-07-29T08:41:44;2.57;;;1.70;;
12910;SDS011;6523;49.758;6.120;2023-07-29T08:44:18;2.00;;;1.80;;
12910;SDS011;6523;49.758;6.120;2023-07-29T08:46:50;3.10;;;1.87;;
12910;SDS011;6523;49.758;6.120;2023-07-29T08:49:20;3.63;;;1.70;;
12910;SDS011;6523;49.758;6.120;2023-07-29T08:51:48;2.33;;;1.80;;
12910;SDS011;6523;49.758;6.120;2023-07-29T08:54:14;2.60;;;1.60;;
12910;SDS011;6523;49.758;6.120;2023-07-29T08:56:41;2.57;;;1.90;;
12910;SDS011;6523;49.758;6.120;2023-07-29T08:59:07;3.10;;;1.50;;
12910;SDS011;6523;49.758;6.120;2023-07-29T09:01:33;1.67;;;1.57;;
12910;SDS011;6523;49.758;6.120;2023-07-29T09:03:59;1.97;;;1.63;;
12910;SDS011;6523;49.758;6.120;2023-07-29T09:06:25;3.50;;;1.80;;
12910;SDS011;6523;49.758;6.120;2023-07-29T09:08:53;1.67;;;1.57;;
12910;SDS011;6523;49.758;6.120;2023-07-29T09:11:19;3.10;;;1.67;;
12910;SDS011;6523;49.758;6.120;2023-07-29T09:13:46;2.23;;;1.70;;
12910;SDS011;6523;49.758;6.120;2023-07-29T09:16:11;2.10;;;1.60;;
12910;SDS011;6523;49.758;6.120;2023-07-29T09:18:38;3.20;;;2.00;;
12910;SDS011;6523;49.758;6.120;2023-07-29T09:21:03;1.90;;;1.80;;
12910;SDS011;6523;49.758;6.120;2023-07-29T09:23:38;1.53;;;1.43;;
12910;SDS011;6523;49.758;6.120;2023-07-29T09:26:07;1.50;;;1.40;;
12910;SDS011;6523;49.758;6.120;2023-07-29T09:28:37;1.77;;;1.67;;
12910;SDS011;6523;49.758;6.120;2023-07-29T09:31:03;2.47;;;1.70;;
12910;SDS011;6523;49.758;6.120;2023-07-29T09:33:29;2.30;;;2.00;;
12910;SDS011;6523;49.758;6.120;2023-07-29T09:35:59;2.10;;;1.90;;
12910;SDS011;6523;49.758;6.120;2023-07-29T09:38:26;2.13;;;1.93;;
12910;SDS011;6523;49.758;6.120;2023-07-29T09:40:54;2.70;;;1.90;;
12910;SDS011;6523;49.758;6.120;2023-07-29T09:43:24;2.30;;;1.63;;
12910;SDS011;6523;49.758;6.120;2023-07-29T09:45:53;2.07;;;1.87;;
12910;SDS011;6523;49.758;6.120;2023-07-29T09:48:19;3.53;;;1.97;;
12910;SDS011;6523;49.758;6.120;2023-07-29T09:50:47;1.80;;;1.70;;
12910;SDS011;6523;49.758;6.120;2023-07-29T09:53:13;1.50;;;1.40;;
12910;SDS011;6523;49.758;6.120;2023-07-29T09:55:39;1.90;;;1.80;;
12910;SDS011;6523;49.758;6.120;2023-07-29T09:58:10;22.90;;;3.53;;
12910;SDS011;6523;49.758;6.120;2023-07-29T10:00:36;1.90;;;1.50;;
12910;SDS011;6523;49.758;6.120;2023-07-29T10:03:03;1.93;;;1.40;;
12910;SDS011;6523;49.758;6.120;2023-07-29T10:05:29;3.50;;;1.60;;
12910;SDS011;6523;49.758;6.120;2023-07-29T10:07:55;2.43;;;1.60;;
12910;SDS011;6523;49.758;6.120;2023-07-29T10:10:21;2.43;;;1.70;;
12910;SDS011;6523;49.758;6.120;2023-07-29T10:12:47;6.17;;;2.00;;
12910;SDS011;6523;49.758;6.120;2023-07-29T10:15:13;1.60;;;1.50;;
12910;SDS011;6523;49.758;6.120;2023-07-29T10:17:41;1.90;;;1.50;;
12910;SDS011;6523;49.758;6.120;2023-07-29T10:20:08;1.80;;;1.70;;
12910;SDS011;6523;49.758;6.120;2023-07-29T10:22:39;1.93;;;1.40;;
12910;SDS011;6523;49.758;6.120;2023-07-29T10:25:29;2.30;;;1.47;;
12910;SDS011;6523;49.758;6.120;2023-07-29T10:28:05;2.33;;;1.60;;
12910;SDS011;6523;49.758;6.120;2023-07-29T10:30:32;1.60;;;1.50;;
12910;SDS011;6523;49.758;6.120;2023-07-29T10:32:58;2.00;;;1.57;;
12910;SDS011;6523;49.758;6.120;2023-07-29T10:35:27;2.53;;;1.80;;
12910;SDS011;6523;49.758;6.120;2023-07-29T10:37:53;2.07;;;1.53;;
12910;SDS011;6523;49.758;6.120;2023-07-29T10:40:20;2.13;;;1.53;;
12910;SDS011;6523;49.758;6.120;2023-07-29T10:43:01;1.97;;;1.50;;
12910;SDS011;6523;49.758;6.120;2023-07-29T10:45:36;1.63;;;1.50;;
12910;SDS011;6523;49.758;6.120;2023-07-29T10:48:12;1.93;;;1.60;;
12910;SDS011;6523;49.758;6.120;2023-07-29T10:53:54;1.50;;;1.40;;
12910;SDS011;6523;49.758;6.120;2023-07-29T10:56:30;1.60;;;1.50;;
12910;SDS011;6523;49.758;6.120;2023-07-29T11:01:42;1.63;;;1.53;;
12910;SDS011;6523;49.758;6.120;2023-07-29T11:04:29;1.63;;;1.53;;
12910;SDS011;6523;49.758;6.120;2023-07-29T11:15:11;2.30;;;1.47;;
12910;SDS011;6523;49.758;6.120;2023-07-29T11:17:39;1.87;;;1.40;;
12910;SDS011;6523;49.758;6.120;2023-07-29T11:20:06;1.47;;;1.30;;
12910;SDS011;6523;49.758;6.120;2023-07-29T11:22:33;1.10;;;1.10;;
12910;SDS011;6523;49.758;6.120;2023-07-29T11:24:58;1.70;;;1.37;;
12910;SDS011;6523;49.758;6.120;2023-07-29T11:27:24;2.00;;;1.20;;
12910;SDS011;6523;49.758;6.120;2023-07-29T11:29:50;1.40;;;1.30;;
12910;SDS011;6523;49.758;6.120;2023-07-29T11:32:21;2.43;;;1.20;;
12910;SDS011;6523;49.758;6.120;2023-07-29T11:34:46;1.33;;;1.23;;
12910;SDS011;6523;49.758;6.120;2023-07-29T11:37:12;2.83;;;1.47;;
12910;SDS011;6523;49.758;6.120;2023-07-29T11:39:41;1.50;;;1.37;;
12910;SDS011;6523;49.758;6.120;2023-07-29T11:42:07;1.33;;;1.23;;
12910;SDS011;6523;49.758;6.120;2023-07-29T11:44:36;1.43;;;1.33;;
12910;SDS011;6523;49.758;6.120;2023-07-29T11:47:02;1.00;;;1.00;;
12910;SDS011;6523;49.758;6.120;2023-07-29T11:49:30;3.43;;;0.90;;
12910;SDS011;6523;49.758;6.120;2023-07-29T11:51:57;1.20;;;1.20;;
12910;SDS011;6523;49.758;6.120;2023-07-29T11:54:23;1.57;;;1.10;;
12910;SDS011;6523;49.758;6.120;2023-07-29T11:56:49;1.67;;;1.17;;
12910;SDS011;6523;49.758;6.120;2023-07-29T11:59:15;1.63;;;1.30;;
12910;SDS011;6523;49.758;6.120;2023-07-29T12:01:41;1.43;;;1.33;;
12910;SDS011;6523;49.758;6.120;2023-07-29T12:04:06;6.33;;;1.73;;
12910;SDS011;6523;49.758;6.120;2023-07-29T12:06:32;2.33;;;1.20;;
12910;SDS011;6523;49.758;6.120;2023-07-29T12:08:58;1.20;;;1.20;;
12910;SDS011;6523;49.758;6.120;2023-07-29T12:11:23;0.97;;;0.97;;
12910;SDS011;6523;49.758;6.120;2023-07-29T12:13:49;1.30;;;1.17;;
12910;SDS011;6523;49.758;6.120;2023-07-29T12:16:18;1.27;;;1.27;;
12910;SDS011;6523;49.758;6.120;2023-07-29T12:18:43;12.90;;;2.43;;
12910;SDS011;6523;49.758;6.120;2023-07-29T12:21:09;2.07;;;1.10;;
12910;SDS011;6523;49.758;6.120;2023-07-29T12:23:34;1.07;;;1.07;;
12910;SDS011;6523;49.758;6.120;2023-07-29T12:26:01;1.43;;;1.20;;
12910;SDS011;6523;49.758;6.120;2023-07-29T12:28:26;1.50;;;1.40;;
12910;SDS011;6523;49.758;6.120;2023-07-29T12:30:55;1.20;;;1.10;;
12910;SDS011;6523;49.758;6.120;2023-07-29T12:33:31;1.43;;;1.33;;
12910;SDS011;6523;49.758;6.120;2023-07-29T12:35:58;1.53;;;1.43;;
12910;SDS011;6523;49.758;6.120;2023-07-29T12:38:28;2.70;;;1.40;;
12910;SDS011;6523;49.758;6.120;2023-07-29T12:40:54;2.30;;;1.50;;
12910;SDS011;6523;49.758;6.120;2023-07-29T12:43:20;2.00;;;1.67;;
12910;SDS011;6523;49.758;6.120;2023-07-29T12:45:46;8.27;;;2.80;;
12910;SDS011;6523;49.758;6.120;2023-07-29T12:48:13;1.90;;;1.60;;
12910;SDS011;6523;49.758;6.120;2023-07-29T12:50:40;1.70;;;1.40;;
12910;SDS011;6523;49.758;6.120;2023-07-29T12:53:06;1.33;;;1.30;;
12910;SDS011;6523;49.758;6.120;2023-07-29T12:55:33;2.30;;;1.60;;
12910;SDS011;6523;49.758;6.120;2023-07-29T12:57:58;1.73;;;1.43;;
12910;SDS011;6523;49.758;6.120;2023-07-29T13:00:24;5.77;;;2.27;;
12910;SDS011;6523;49.758;6.120;2023-07-29T13:02:50;1.73;;;1.37;;
12910;SDS011;6523;49.758;6.120;2023-07-29T13:05:16;3.73;;;2.10;;
12910;SDS011;6523;49.758;6.120;2023-07-29T13:07:41;1.40;;;1.30;;
12910;SDS011;6523;49.758;6.120;2023-07-29T13:10:08;2.27;;;1.37;;
12910;SDS011;6523;49.758;6.120;2023-07-29T13:12:34;1.40;;;1.30;;
12910;SDS011;6523;49.758;6.120;2023-07-29T13:15:00;1.40;;;1.30;;
12910;SDS011;6523;49.758;6.120;2023-07-29T13:17:25;1.13;;;1.07;;
12910;SDS011;6523;49.758;6.120;2023-07-29T13:19:51;1.20;;;1.10;;
12910;SDS011;6523;49.758;6.120;2023-07-29T13:22:17;1.23;;;1.10;;
12910;SDS011;6523;49.758;6.120;2023-07-29T13:24:43;1.50;;;1.40;;
12910;SDS011;6523;49.758;6.120;2023-07-29T13:27:08;1.40;;;1.30;;
12910;SDS011;6523;49.758;6.120;2023-07-29T13:29:34;1.60;;;1.30;;
12910;SDS011;6523;49.758;6.120;2023-07-29T13:31:59;1.50;;;1.40;;
12910;SDS011;6523;49.758;6.120;2023-07-29T13:34:25;5.83;;;1.80;;
12910;SDS011;6523;49.758;6.120;2023-07-29T13:36:50;4.33;;;1.90;;
12910;SDS011;6523;49.758;6.120;2023-07-29T13:39:16;1.40;;;1.30;;
12910;SDS011;6523;49.758;6.120;2023-07-29T13:41:41;1.83;;;1.63;;
12910;SDS011;6523;49.758;6.120;2023-07-29T13:44:07;2.03;;;1.30;;
12910;SDS011;6523;49.758;6.120;2023-07-29T13:46:32;1.30;;;1.20;;
12910;SDS011;6523;49.758;6.120;2023-07-29T13:48:58;1.77;;;1.03;;
12910;SDS011;6523;49.758;6.120;2023-07-29T13:51:23;1.43;;;1.20;;
12910;SDS011;6523;49.758;6.120;2023-07-29T13:53:49;1.20;;;1.10;;
12910;SDS011;6523;49.758;6.120;2023-07-29T13:56:15;1.20;;;1.10;;
12910;SDS011;6523;49.758;6.120;2023-07-29T13:58:40;1.47;;;1.20;;
12910;SDS011;6523;49.758;6.120;2023-07-29T14:01:06;1.50;;;1.40;;
12910;SDS011;6523;49.758;6.120;2023-07-29T14:03:31;1.13;;;1.00;;
12910;SDS011;6523;49.758;6.120;2023-07-29T14:05:57;1.30;;;1.20;;
12910;SDS011;6523;49.758;6.120;2023-07-29T14:08:22;1.37;;;1.27;;
12910;SDS011;6523;49.758;6.120;2023-07-29T14:10:48;1.87;;;1.30;;
12910;SDS011;6523;49.758;6.120;2023-07-29T14:13:14;1.40;;;1.30;;
12910;SDS011;6523;49.758;6.120;2023-07-29T14:15:40;1.27;;;1.17;;
12910;SDS011;6523;49.758;6.120;2023-07-29T14:18:06;5.50;;;1.87;;
12910;SDS011;6523;49.758;6.120;2023-07-29T14:20:32;1.03;;;1.03;;
12910;SDS011;6523;49.758;6.120;2023-07-29T14:22:57;2.23;;;1.13;;
12910;SDS011;6523;49.758;6.120;2023-07-29T14:25:23;1.57;;;1.10;;
12910;SDS011;6523;49.758;6.120;2023-07-29T14:27:49;4.47;;;1.77;;
12910;SDS011;6523;49.758;6.120;2023-07-29T14:30:14;1.30;;;1.20;;
12910;SDS011;6523;49.758;6.120;2023-07-29T14:32:40;1.27;;;1.17;;
12910;SDS011;6523;49.758;6.120;2023-07-29T14:35:05;1.87;;;1.10;;
12910;SDS011;6523;49.758;6.120;2023-07-29T14:37:32;1.10;;;1.10;;
12910;SDS011;6523;49.758;6.120;2023-07-29T14:39:58;1.37;;;1.27;;
12910;SDS011;6523;49.758;6.120;2023-07-29T14:42:24;1.23;;;1.17;;
12910;SDS011;6523;49.758;6.120;2023-07-29T14:44:49;6.40;;;1.30;;
12910;SDS011;6523;49.758;6.120;2023-07-29T14:47:15;1.07;;;1.03;;
12910;SDS011;6523;49.758;6.120;2023-07-29T14:49:41;1.40;;;1.17;;
12910;SDS011;6523;49.758;6.120;2023-07-29T14:52:07;2.03;;;1.33;;
12910;SDS011;6523;49.758;6.120;2023-07-29T14:54:32;2.10;;;1.30;;
12910;SDS011;6523;49.758;6.120;2023-07-29T14:56:58;0.90;;;0.90;;
12910;SDS011;6523;49.758;6.120;2023-07-29T14:59:23;1.50;;;1.40;;
12910;SDS011;6523;49.758;6.120;2023-07-29T15:01:49;1.30;;;1.20;;
12910;SDS011;6523;49.758;6.120;2023-07-29T15:04:15;1.37;;;1.17;;
12910;SDS011;6523;49.758;6.120;2023-07-29T15:06:41;1.40;;;1.30;;
12910;SDS011;6523;49.758;6.120;2023-07-29T15:09:06;1.43;;;1.33;;
12910;SDS011;6523;49.758;6.120;2023-07-29T15:11:32;1.77;;;1.20;;
12910;SDS011;6523;49.758;6.120;2023-07-29T15:13:58;1.33;;;1.23;;
12910;SDS011;6523;49.758;6.120;2023-07-29T15:16:25;2.23;;;1.30;;